createdAt,value
2018-01-18T00:01:15.262Z,4.03
2018-01-18T00:03:42.912Z,4.30
2018-01-18T00:06:10.480Z,3.30
2018-01-18T00:08:38.133Z,3.10
2018-01-18T00:11:05.673Z,4.10
2018-01-18T00:13:33.245Z,4.00
2018-01-18T00:16:00.797Z,2.60
2018-01-18T00:18:28.368Z,3.80
2018-01-18T00:20:55.955Z,3.47
2018-01-18T00:23:23.533Z,2.93
2018-01-18T00:25:51.068Z,2.80
2018-01-18T00:28:18.603Z,3.47
2018-01-18T00:30:46.117Z,3.53
2018-01-18T00:33:13.672Z,2.80
2018-01-18T00:35:41.246Z,3.17
2018-01-18T00:38:08.756Z,3.30
2018-01-18T00:40:36.320Z,2.50
2018-01-18T00:43:03.878Z,3.10
2018-01-18T00:45:31.383Z,3.40
2018-01-18T00:47:59.260Z,2.70
2018-01-18T00:50:26.771Z,3.40
2018-01-18T00:52:54.281Z,3.40
2018-01-18T00:55:21.819Z,2.70
2018-01-18T00:57:49.332Z,2.80
2018-01-18T01:00:16.897Z,3.10
2018-01-18T01:02:44.402Z,2.83
2018-01-18T01:05:12.855Z,2.80
2018-01-18T01:07:40.378Z,2.70
2018-01-18T01:10:07.968Z,3.60
2018-01-18T01:12:35.562Z,2.00
2018-01-18T01:15:03.076Z,3.50
2018-01-18T01:17:30.673Z,4.07
2018-01-18T01:19:58.281Z,3.80
2018-01-18T01:22:25.829Z,3.10
2018-01-18T01:24:53.397Z,2.70
2018-01-18T01:27:21.003Z,3.23
2018-01-18T01:29:48.900Z,2.57
2018-01-18T01:32:16.413Z,3.20
2018-01-18T01:34:43.984Z,5.03
2018-01-18T01:37:11.544Z,3.67
2018-01-18T01:39:39.087Z,3.23
2018-01-18T01:42:06.680Z,2.33
2018-01-18T01:44:34.220Z,3.10
2018-01-18T01:47:01.759Z,3.50
2018-01-18T01:49:29.329Z,3.60
2018-01-18T01:51:56.884Z,3.90
2018-01-18T01:54:24.741Z,4.07
2018-01-18T01:56:52.277Z,4.30
2018-01-18T01:59:19.823Z,3.20
2018-01-18T02:01:47.397Z,3.70
2018-01-18T02:04:14.965Z,4.87
2018-01-18T02:06:42.529Z,4.00
2018-01-18T02:09:10.045Z,3.50
2018-01-18T02:11:37.626Z,4.40
2018-01-18T02:14:05.174Z,3.90
2018-01-18T02:16:32.718Z,5.33
2018-01-18T02:19:00.282Z,4.50
2018-01-18T02:21:27.868Z,3.90
2018-01-18T02:23:55.413Z,5.10
2018-01-18T02:26:22.922Z,3.93
2018-01-18T02:28:50.476Z,4.40
2018-01-18T02:31:18.021Z,4.37
2018-01-18T02:33:45.611Z,4.43
2018-01-18T02:36:13.120Z,4.93
2018-01-18T02:38:40.703Z,5.30
2018-01-18T02:41:08.283Z,4.67
2018-01-18T02:43:35.853Z,4.50
2018-01-18T02:46:03.489Z,5.03
2018-01-18T02:48:31.045Z,4.90
2018-01-18T02:50:58.582Z,5.77
2018-01-18T02:53:26.139Z,5.43
2018-01-18T02:55:53.684Z,4.63
2018-01-18T02:58:21.224Z,5.50
2018-01-18T03:00:48.789Z,5.20
2018-01-18T03:03:16.328Z,4.20
2018-01-18T03:05:43.996Z,5.33
2018-01-18T03:08:11.704Z,4.57
2018-01-18T03:10:39.253Z,6.80
2018-01-18T03:13:06.759Z,6.07
2018-01-18T03:15:34.315Z,5.57
2018-01-18T03:18:01.856Z,5.60
2018-01-18T03:20:29.376Z,4.80
2018-01-18T03:22:57.297Z,5.37
2018-01-18T03:25:24.845Z,4.33
2018-01-18T03:27:52.347Z,5.63
2018-01-18T03:30:19.933Z,5.27
2018-01-18T03:32:47.460Z,3.90
2018-01-18T03:35:14.992Z,4.50
2018-01-18T03:37:42.524Z,4.40
2018-01-18T03:40:10.076Z,3.90
2018-01-18T03:42:37.588Z,3.60
2018-01-18T03:45:05.160Z,3.57
2018-01-18T03:47:32.688Z,4.30
2018-01-18T03:50:00.204Z,3.70
2018-01-18T03:52:27.773Z,4.20
2018-01-18T03:54:55.332Z,4.60
2018-01-18T03:57:22.863Z,4.53
2018-01-18T03:59:50.384Z,5.70
2018-01-18T04:02:17.952Z,4.90
2018-01-18T04:04:45.506Z,4.50
2018-01-18T04:07:13.035Z,4.60
2018-01-18T04:09:40.627Z,4.30
2018-01-18T04:12:08.168Z,5.50
2018-01-18T04:14:35.704Z,5.80
2018-01-18T04:17:03.284Z,4.90
2018-01-18T04:19:30.802Z,5.20
2018-01-18T04:21:58.346Z,5.40
2018-01-18T04:24:25.860Z,5.73
2018-01-18T04:26:53.715Z,6.60
2018-01-18T04:29:21.267Z,6.23
2018-01-18T04:31:48.820Z,5.43
2018-01-18T04:34:16.396Z,5.30
2018-01-18T04:36:43.952Z,6.77
2018-01-18T04:39:11.524Z,6.13
2018-01-18T04:41:39.064Z,5.33
2018-01-18T04:44:06.984Z,5.97
2018-01-18T04:46:34.529Z,6.27
2018-01-18T04:49:02.044Z,6.67
2018-01-18T04:51:29.609Z,5.77
2018-01-18T04:53:57.134Z,5.77
2018-01-18T04:56:24.713Z,5.90
2018-01-18T04:58:52.264Z,6.97
2018-01-18T05:01:19.801Z,6.47
2018-01-18T05:03:47.360Z,6.53
2018-01-18T05:06:14.934Z,5.70
2018-01-18T05:08:42.508Z,7.43
2018-01-18T05:11:10.054Z,7.40
2018-01-18T05:13:37.593Z,5.63
2018-01-18T05:16:05.100Z,6.57
2018-01-18T05:18:32.644Z,5.53
2018-01-18T05:21:00.204Z,5.63
2018-01-18T05:23:27.740Z,4.90
2018-01-18T05:25:55.268Z,5.60
2018-01-18T05:28:22.950Z,5.10
2018-01-18T05:30:50.499Z,4.17
2018-01-18T05:33:18.075Z,4.77
2018-01-18T05:35:45.583Z,4.50
2018-01-18T05:38:13.101Z,4.10
2018-01-18T05:40:40.669Z,5.13
2018-01-18T05:43:08.183Z,3.27
2018-01-18T05:45:35.757Z,5.07
2018-01-18T05:48:03.281Z,5.07
2018-01-18T05:50:30.844Z,5.27
2018-01-18T05:52:58.477Z,3.57
2018-01-18T05:55:26.056Z,4.10
2018-01-18T05:57:53.572Z,3.77
2018-01-18T06:00:21.088Z,4.00
2018-01-18T06:02:48.653Z,3.00
2018-01-18T06:05:16.222Z,3.60
2018-01-18T06:07:43.812Z,3.50
2018-01-18T06:10:11.408Z,2.83
2018-01-18T06:12:38.916Z,3.80
2018-01-18T06:15:06.583Z,3.97
2018-01-18T06:17:34.156Z,3.47
2018-01-18T06:20:01.710Z,2.90
2018-01-18T06:22:29.608Z,3.40
2018-01-18T06:24:57.234Z,3.40
2018-01-18T06:27:24.774Z,3.30
2018-01-18T06:29:52.369Z,3.77
2018-01-18T06:32:19.908Z,2.97
2018-01-18T06:34:47.533Z,2.80
2018-01-18T06:37:15.072Z,2.80
2018-01-18T06:39:42.612Z,3.60
2018-01-18T06:42:10.187Z,2.77
2018-01-18T06:44:37.714Z,2.77
2018-01-18T06:47:05.272Z,3.33
2018-01-18T06:49:32.779Z,3.80
2018-01-18T06:52:00.298Z,3.70
2018-01-18T06:54:27.823Z,4.53
2018-01-18T06:56:55.477Z,5.07
2018-01-18T06:59:23.072Z,5.60
2018-01-18T07:01:50.628Z,5.10
2018-01-18T07:04:18.139Z,5.40
2018-01-18T07:06:45.672Z,7.00
2018-01-18T07:09:13.193Z,6.73
2018-01-18T07:11:40.741Z,7.47
2018-01-18T07:14:08.336Z,9.03
2018-01-18T07:16:35.878Z,7.80
2018-01-18T07:19:03.434Z,7.27
2018-01-18T07:21:31.079Z,6.53
2018-01-18T07:23:58.630Z,4.63
2018-01-18T07:26:26.173Z,7.30
2018-01-18T07:28:53.748Z,7.80
2018-01-18T07:31:21.308Z,4.80
2018-01-18T07:33:48.849Z,6.60
2018-01-18T07:36:16.417Z,6.70
2018-01-18T07:38:43.964Z,5.00
2018-01-18T07:41:11.536Z,5.80
2018-01-18T07:43:39.160Z,4.30
2018-01-18T07:46:06.851Z,3.27
2018-01-18T07:48:34.372Z,4.40
2018-01-18T07:51:01.892Z,4.37
2018-01-18T07:53:29.427Z,4.40
2018-01-18T07:55:56.932Z,3.47
2018-01-18T07:58:24.603Z,5.00
2018-01-18T08:00:52.140Z,3.80
2018-01-18T08:03:25.289Z,3.37
2018-01-18T08:05:52.892Z,3.10
2018-01-18T08:08:20.473Z,3.60
2018-01-18T08:10:47.989Z,2.47
2018-01-18T08:13:15.871Z,3.07
2018-01-18T08:15:43.386Z,4.00
2018-01-18T08:18:11.825Z,2.80
2018-01-18T08:20:39.379Z,3.80
2018-01-18T08:23:06.917Z,5.63
2018-01-18T08:28:16.357Z,2.60
2018-01-18T08:30:43.929Z,5.20
2018-01-18T08:33:11.439Z,6.30
2018-01-18T08:35:39.010Z,4.47
2018-01-18T08:38:06.526Z,5.10
2018-01-18T08:40:34.070Z,3.03
2018-01-18T08:43:01.665Z,3.20
2018-01-18T08:45:29.237Z,4.17
2018-01-18T08:47:56.784Z,3.00
2018-01-18T08:50:24.409Z,2.70
2018-01-18T08:52:52.003Z,1.87
2018-01-18T08:55:19.525Z,1.90
2018-01-18T08:57:47.109Z,3.60
2018-01-18T09:00:14.664Z,4.27
2018-01-18T09:02:42.201Z,4.60
2018-01-18T09:05:09.873Z,5.30
2018-01-18T09:07:37.456Z,5.60
2018-01-18T09:10:04.974Z,3.50
2018-01-18T09:12:32.512Z,3.20
2018-01-18T09:15:00.408Z,2.53
2018-01-18T09:17:28.138Z,4.53
2018-01-18T09:19:55.722Z,2.10
2018-01-18T09:22:23.353Z,3.90
2018-01-18T09:24:50.892Z,1.73
2018-01-18T09:27:18.427Z,2.30
2018-01-18T09:29:45.961Z,1.13
2018-01-18T09:32:13.683Z,2.60
2018-01-18T09:34:41.364Z,2.10
2018-01-18T09:37:08.906Z,1.27
2018-01-18T09:39:36.484Z,1.80
2018-01-18T09:42:04.021Z,2.10
2018-01-18T09:44:31.596Z,1.60
2018-01-18T09:46:59.128Z,1.73
2018-01-18T09:49:26.702Z,1.23
2018-01-18T09:51:54.346Z,1.93
2018-01-18T09:54:21.949Z,1.87
2018-01-18T09:56:49.521Z,1.60
2018-01-18T09:59:17.380Z,1.60
2018-01-18T10:01:44.977Z,1.43
2018-01-18T10:04:12.473Z,1.60
2018-01-18T10:06:40.098Z,1.30
2018-01-18T10:09:07.621Z,1.40
2018-01-18T10:11:35.119Z,1.93
2018-01-18T10:14:02.677Z,0.90
2018-01-18T10:16:30.220Z,3.13
2018-01-18T10:18:57.762Z,2.03
2018-01-18T10:21:25.325Z,1.23
2018-01-18T10:23:52.842Z,1.50
2018-01-18T10:26:20.373Z,0.87
2018-01-18T10:28:47.920Z,2.30
2018-01-18T10:31:15.480Z,1.43
2018-01-18T10:33:43.080Z,2.67
2018-01-18T10:36:10.712Z,3.37
2018-01-18T10:38:38.281Z,2.17
2018-01-18T10:41:05.826Z,3.50
2018-01-18T10:43:33.396Z,1.20
2018-01-18T10:46:00.936Z,2.37
2018-01-18T10:48:28.480Z,3.17
2018-01-18T10:50:56.035Z,3.10
2018-01-18T10:53:23.598Z,4.20
2018-01-18T10:55:51.116Z,3.00
2018-01-18T10:58:18.688Z,2.20
2018-01-18T11:00:46.288Z,3.73
2018-01-18T11:03:13.801Z,2.03
2018-01-18T11:05:41.331Z,2.03
2018-01-18T11:08:08.866Z,1.87
2018-01-18T11:10:36.418Z,0.90
2018-01-18T11:13:03.985Z,1.30
2018-01-18T11:15:31.497Z,1.53
2018-01-18T11:17:59.053Z,1.10
2018-01-18T11:20:26.664Z,1.50
2018-01-18T11:22:54.613Z,0.60
2018-01-18T11:25:22.134Z,1.00
2018-01-18T11:27:49.720Z,1.10
2018-01-18T11:30:17.256Z,1.33
2018-01-18T11:32:44.959Z,0.70
2018-01-18T11:35:12.472Z,1.00
2018-01-18T11:37:40.025Z,0.80
2018-01-18T11:40:07.563Z,1.37
2018-01-18T11:42:35.161Z,0.93
2018-01-18T11:45:02.728Z,0.90
2018-01-18T11:47:30.241Z,0.70
2018-01-18T11:49:57.774Z,1.10
2018-01-18T11:52:25.340Z,1.10
2018-01-18T11:54:52.883Z,1.10
2018-01-18T11:57:20.399Z,1.20
2018-01-18T11:59:47.937Z,0.60
2018-01-18T12:02:15.444Z,0.90
2018-01-18T12:04:43.026Z,1.37
2018-01-18T12:07:10.588Z,1.13
2018-01-18T12:09:38.234Z,1.30
2018-01-18T12:12:06.236Z,1.23
2018-01-18T12:14:33.763Z,1.00
2018-01-18T12:17:01.286Z,0.80
2018-01-18T12:19:28.844Z,0.80
2018-01-18T12:21:56.386Z,0.90
2018-01-18T12:24:24.001Z,0.90
2018-01-18T12:26:51.536Z,0.97
2018-01-18T12:29:19.138Z,1.10
2018-01-18T12:31:46.985Z,0.63
2018-01-18T12:34:14.487Z,1.53
2018-01-18T12:36:42.026Z,0.87
2018-01-18T12:39:09.575Z,1.00
2018-01-18T12:41:37.080Z,1.70
2018-01-18T12:44:05.090Z,0.80
2018-01-18T12:46:32.611Z,0.67
2018-01-18T12:49:00.234Z,0.60
2018-01-18T12:51:27.833Z,0.90
2018-01-18T12:53:55.352Z,0.60
2018-01-18T12:56:22.881Z,1.97
2018-01-18T12:58:50.472Z,0.80
2018-01-18T13:01:18.008Z,1.43
2018-01-18T13:03:45.537Z,1.10
2018-01-18T13:06:13.124Z,0.60
2018-01-18T13:08:40.718Z,1.03
2018-01-18T13:11:08.256Z,0.90
2018-01-18T13:13:35.849Z,0.93
2018-01-18T13:16:03.784Z,1.30
2018-01-18T13:18:31.424Z,1.60
2018-01-18T13:20:58.950Z,0.90
2018-01-18T13:23:26.513Z,1.00
2018-01-18T13:25:54.389Z,1.13
2018-01-18T13:28:21.926Z,0.97
2018-01-18T13:30:49.469Z,1.50
2018-01-18T13:33:17.014Z,1.30
2018-01-18T13:35:44.596Z,1.60
2018-01-18T13:38:12.219Z,1.00
2018-01-18T13:40:39.732Z,0.93
2018-01-18T13:43:07.273Z,1.30
2018-01-18T13:45:34.810Z,1.00
2018-01-18T13:48:02.319Z,1.23
2018-01-18T13:50:29.886Z,1.40
2018-01-18T13:52:57.421Z,0.83
2018-01-18T13:55:24.973Z,1.53
2018-01-18T13:57:52.556Z,1.47
2018-01-18T14:00:20.083Z,1.00
2018-01-18T14:02:47.624Z,1.40
2018-01-18T14:05:15.188Z,1.30
2018-01-18T14:07:42.701Z,1.33
2018-01-18T14:10:10.241Z,1.10
2018-01-18T14:12:38.186Z,1.23
2018-01-18T14:15:05.733Z,0.93
2018-01-18T14:17:33.280Z,1.30
2018-01-18T14:20:00.825Z,1.30
2018-01-18T14:22:28.390Z,1.60
2018-01-18T14:24:55.907Z,1.03
2018-01-18T14:27:23.440Z,1.70
2018-01-18T14:29:51.009Z,1.57
2018-01-18T14:32:18.549Z,1.80
2018-01-18T14:34:46.084Z,1.63
2018-01-18T14:37:13.583Z,2.13
2018-01-18T14:39:41.113Z,1.07
2018-01-18T14:42:08.684Z,1.30
2018-01-18T14:44:36.193Z,1.10
2018-01-18T14:47:03.859Z,1.73
2018-01-18T14:49:31.376Z,1.83
2018-01-18T14:51:58.905Z,1.57
2018-01-18T14:54:26.464Z,1.40
2018-01-18T14:56:54.057Z,1.30
2018-01-18T14:59:21.566Z,1.57
2018-01-18T15:01:49.282Z,1.60
2018-01-18T15:04:16.820Z,1.53
2018-01-18T15:06:44.414Z,1.77
2018-01-18T15:09:12.119Z,1.27
2018-01-18T15:11:39.773Z,1.37
2018-01-18T15:14:07.304Z,1.73
2018-01-18T15:16:34.930Z,1.50
2018-01-18T15:19:02.829Z,2.07
2018-01-18T15:21:30.342Z,1.33
2018-01-18T15:23:57.981Z,1.53
2018-01-18T15:26:25.503Z,1.40
2018-01-18T15:28:53.060Z,1.33
2018-01-18T15:31:20.597Z,1.53
2018-01-18T15:33:48.107Z,1.80
2018-01-18T15:36:15.659Z,1.77
2018-01-18T15:38:43.170Z,1.23
2018-01-18T15:41:10.732Z,2.00
2018-01-18T15:43:38.249Z,1.73
2018-01-18T15:46:05.805Z,2.23
2018-01-18T15:48:33.395Z,1.87
2018-01-18T15:51:00.937Z,1.70
2018-01-18T15:53:28.641Z,1.27
2018-01-18T15:55:56.306Z,1.47
2018-01-18T15:58:23.815Z,1.20
2018-01-18T16:00:51.373Z,1.17
2018-01-18T16:03:18.871Z,1.27
2018-01-18T16:05:46.465Z,1.10
2018-01-18T16:08:14.181Z,1.30
2018-01-18T16:10:41.697Z,0.80
2018-01-18T16:13:09.236Z,1.00
2018-01-18T16:15:36.773Z,0.90
2018-01-18T16:18:04.308Z,1.20
2018-01-18T16:20:31.917Z,1.47
2018-01-18T16:22:59.515Z,0.90
2018-01-18T16:25:27.049Z,1.37
2018-01-18T16:27:54.601Z,2.00
2018-01-18T16:30:22.140Z,1.03
2018-01-18T16:32:49.701Z,1.10
2018-01-18T16:35:17.232Z,1.43
2018-01-18T16:37:44.754Z,1.57
2018-01-18T16:40:12.417Z,1.23
2018-01-18T16:42:39.988Z,1.23
2018-01-18T16:45:07.672Z,1.07
2018-01-18T16:47:35.266Z,1.63
2018-01-18T16:50:02.813Z,1.60
2018-01-18T16:52:30.324Z,1.30
2018-01-18T16:54:57.975Z,1.20
2018-01-18T16:57:25.546Z,0.90
2018-01-18T16:59:53.169Z,1.40
2018-01-18T17:02:20.823Z,1.73
2018-01-18T17:04:48.367Z,3.60
2018-01-18T17:07:15.894Z,1.27
2018-01-18T17:09:43.723Z,1.73
2018-01-18T17:12:11.297Z,1.60
2018-01-18T17:14:38.844Z,1.60
2018-01-18T17:17:06.439Z,1.40
2018-01-18T17:19:33.989Z,2.00
2018-01-18T17:22:01.532Z,2.90
2018-01-18T17:24:29.464Z,2.07
2018-01-18T17:26:57.013Z,2.10
2018-01-18T17:29:24.559Z,2.80
2018-01-18T17:31:52.204Z,1.47
2018-01-18T17:34:19.752Z,1.57
2018-01-18T17:36:47.293Z,1.40
2018-01-18T17:39:14.898Z,1.60
2018-01-18T17:41:42.673Z,1.60
2018-01-18T17:44:10.207Z,1.80
2018-01-18T17:46:38.127Z,2.10
2018-01-18T17:49:06.084Z,2.13
2018-01-18T17:51:33.682Z,1.83
2018-01-18T17:54:01.219Z,1.63
2018-01-18T17:56:28.757Z,1.80
2018-01-18T17:58:56.504Z,1.73
2018-01-18T18:01:24.049Z,1.67
2018-01-18T18:03:51.585Z,2.10
2018-01-18T18:06:19.235Z,1.60
2018-01-18T18:08:46.780Z,2.20
2018-01-18T18:11:14.325Z,2.10
2018-01-18T18:13:41.861Z,3.00
2018-01-18T18:16:09.364Z,2.27
2018-01-18T18:18:36.920Z,2.70
2018-01-18T18:21:04.456Z,2.30
2018-01-18T18:23:32.031Z,2.10
2018-01-18T18:25:59.587Z,3.03
2018-01-18T18:28:27.143Z,2.40
2018-01-18T18:30:54.730Z,3.27
2018-01-18T18:33:22.271Z,2.50
2018-01-18T18:35:50.157Z,2.90
2018-01-18T18:38:17.677Z,2.50
2018-01-18T18:40:45.205Z,2.97
2018-01-18T18:43:12.825Z,3.33
2018-01-18T18:45:40.364Z,2.93
2018-01-18T18:48:07.947Z,3.80
2018-01-18T18:50:35.569Z,3.23
2018-01-18T18:53:03.100Z,3.87
2018-01-18T18:55:30.648Z,4.23
2018-01-18T18:57:58.168Z,4.30
2018-01-18T19:00:25.765Z,5.30
2018-01-18T19:02:54.349Z,5.17
2018-01-18T19:05:22.293Z,5.70
2018-01-18T19:07:49.854Z,5.33
2018-01-18T19:10:17.396Z,7.00
2018-01-18T19:12:45.232Z,7.00
2018-01-18T19:15:12.788Z,6.17
2018-01-18T19:17:40.313Z,7.57
2018-01-18T19:20:07.886Z,7.10
2018-01-18T19:22:35.433Z,7.60
2018-01-18T19:25:03.150Z,8.47
2018-01-18T19:27:30.863Z,7.60
2018-01-18T19:29:58.415Z,10.07
2018-01-18T19:32:25.971Z,7.97
2018-01-18T19:34:53.561Z,11.47
2018-01-18T19:37:21.181Z,9.30
2018-01-18T19:39:48.724Z,8.60
2018-01-18T19:42:16.276Z,12.30
2018-01-18T19:44:43.852Z,11.50
2018-01-18T19:47:11.373Z,11.80
2018-01-18T19:49:38.957Z,10.50
2018-01-18T19:52:06.522Z,10.50
2018-01-18T19:54:34.132Z,10.53
2018-01-18T19:57:01.694Z,10.53
2018-01-18T19:59:29.317Z,11.10
2018-01-18T20:01:56.928Z,10.57
2018-01-18T20:04:24.515Z,12.43
2018-01-18T20:06:52.146Z,11.13
2018-01-18T20:09:19.749Z,12.50
2018-01-18T20:11:47.395Z,11.90
2018-01-18T20:14:14.944Z,11.03
2018-01-18T20:16:42.512Z,11.17
2018-01-18T20:19:10.074Z,12.90
2018-01-18T20:21:37.628Z,12.57
2018-01-18T20:24:05.184Z,15.80
2018-01-18T20:26:32.788Z,14.00
2018-01-18T20:29:00.335Z,10.90
2018-01-18T20:31:27.883Z,10.30
2018-01-18T20:33:55.492Z,11.30
2018-01-18T20:36:23.044Z,10.07
2018-01-18T20:38:50.600Z,11.23
2018-01-18T20:41:18.113Z,9.67
2018-01-18T20:43:45.680Z,12.03
2018-01-18T20:46:13.196Z,13.33
2018-01-18T20:48:40.865Z,13.67
2018-01-18T20:51:08.399Z,11.40
2018-01-18T20:53:35.931Z,13.60
2018-01-18T20:56:03.597Z,12.20
2018-01-18T20:58:31.153Z,12.40
2018-01-18T21:00:58.857Z,12.80
2018-01-18T21:03:26.436Z,12.70
2018-01-18T21:05:53.988Z,12.83
2018-01-18T21:08:21.600Z,11.20
2018-01-18T21:10:49.146Z,14.13
2018-01-18T21:13:16.813Z,13.80
2018-01-18T21:15:44.389Z,12.20
2018-01-18T21:18:12.005Z,11.07
2018-01-18T21:20:39.557Z,11.13
2018-01-18T21:23:07.132Z,11.20
2018-01-18T21:25:34.730Z,11.40
2018-01-18T21:28:02.343Z,10.80
2018-01-18T21:30:29.901Z,9.37
2018-01-18T21:32:57.542Z,11.50
2018-01-18T21:35:25.088Z,11.10
2018-01-18T21:37:52.638Z,11.17
2018-01-18T21:40:20.326Z,9.93
2018-01-18T21:42:47.857Z,10.80
2018-01-18T21:45:15.386Z,10.63
2018-01-18T21:47:42.997Z,10.60
2018-01-18T21:50:10.549Z,11.80
2018-01-18T21:52:38.104Z,10.50
2018-01-18T21:55:05.676Z,11.27
2018-01-18T21:57:33.192Z,11.10
2018-01-18T22:00:00.736Z,10.13
2018-01-18T22:02:28.354Z,10.10
2018-01-18T22:04:55.905Z,9.10
2018-01-18T22:07:23.438Z,11.47
2018-01-18T22:09:51.049Z,12.33
2018-01-18T22:12:18.592Z,10.17
2018-01-18T22:14:46.110Z,11.37
2018-01-18T22:17:13.656Z,11.47
2018-01-18T22:19:41.292Z,12.57
2018-01-18T22:22:08.857Z,12.03
2018-01-18T22:24:36.409Z,13.57
2018-01-18T22:27:03.957Z,12.53
2018-01-18T22:29:31.534Z,13.00
2018-01-18T22:31:59.052Z,13.40
2018-01-18T22:34:26.736Z,15.60
2018-01-18T22:36:54.456Z,14.40
2018-01-18T22:39:22.161Z,15.77
2018-01-18T22:41:49.717Z,15.87
2018-01-18T22:44:17.252Z,16.87
2018-01-18T22:46:44.857Z,16.67
2018-01-18T22:49:12.375Z,14.93
2018-01-18T22:51:39.962Z,16.73
2018-01-18T22:54:07.568Z,15.80
2018-01-18T22:56:35.096Z,15.23
2018-01-18T22:59:02.653Z,16.47
2018-01-18T23:01:30.172Z,16.80
2018-01-18T23:03:57.777Z,15.40
2018-01-18T23:06:25.349Z,17.87
2018-01-18T23:08:52.892Z,17.70
2018-01-18T23:11:20.472Z,17.50
2018-01-18T23:13:48.029Z,16.97
2018-01-18T23:16:15.600Z,17.10
2018-01-18T23:18:43.182Z,15.00
2018-01-18T23:21:10.746Z,15.50
2018-01-18T23:23:38.357Z,16.43
2018-01-18T23:26:05.889Z,17.37
2018-01-18T23:28:33.446Z,16.50
2018-01-18T23:31:01.030Z,15.43
2018-01-18T23:33:28.685Z,16.57
2018-01-18T23:35:56.289Z,18.10
2018-01-18T23:38:23.872Z,18.27
2018-01-18T23:40:51.460Z,18.93
2018-01-18T23:43:19.068Z,19.00
2018-01-18T23:45:46.620Z,19.03
2018-01-18T23:48:14.174Z,19.80
2018-01-18T23:50:41.759Z,19.60
2018-01-18T23:53:09.381Z,20.40
2018-01-18T23:55:36.970Z,19.10
2018-01-18T23:58:04.579Z,18.43
